createdAt,value
2018-07-14T00:00:30.621Z,74.9
2018-07-14T00:01:29.940Z,74.8
2018-07-14T00:02:29.258Z,75.3
2018-07-14T00:03:28.692Z,75.4
2018-07-14T00:05:27.306Z,75.3
2018-07-14T00:06:26.623Z,75.6
2018-07-14T00:07:26.048Z,75.3
2018-07-14T00:08:25.378Z,75.7
2018-07-14T00:09:24.707Z,75.8
2018-07-14T00:10:24.045Z,75.9
2018-07-14T00:11:23.814Z,76
2018-07-14T00:12:23.129Z,75.9
2018-07-14T00:13:22.049Z,76.4
2018-07-14T00:13:52.679Z,76.4
2018-07-14T00:14:23.211Z,76.1
2018-07-14T00:15:21.131Z,76.4
2018-07-14T00:16:20.239Z,76.2
2018-07-14T00:17:19.351Z,76.4
2018-07-14T00:18:19.175Z,76.8
2018-07-14T00:19:18.605Z,76.6
2018-07-14T00:20:17.815Z,76.6
2018-07-14T00:21:17.136Z,76.4
2018-07-14T00:22:16.562Z,76.8
2018-07-14T00:23:15.777Z,76.5
2018-07-14T00:24:15.036Z,76.7
2018-07-14T00:25:14.609Z,76.8
2018-07-14T00:26:13.936Z,76.9
2018-07-14T00:27:13.152Z,76.6
2018-07-14T00:28:12.651Z,76.7
2018-07-14T00:29:11.967Z,76.6
2018-07-14T00:30:11.357Z,76.5
2018-07-14T00:31:10.863Z,76.8
2018-07-14T00:32:10.071Z,77.3
2018-07-14T00:33:09.385Z,77.1
2018-07-14T00:34:08.490Z,77.3
2018-07-14T00:35:08.097Z,77.2
2018-07-14T00:36:07.211Z,77.1
2018-07-14T00:37:06.638Z,77.3
2018-07-14T00:38:06.066Z,77.4
2018-07-14T00:39:05.273Z,77.5
2018-07-14T00:40:04.993Z,77.3
2018-07-14T00:42:03.592Z,77.5
2018-07-14T00:43:03.024Z,77.5
2018-07-14T00:44:02.236Z,77.6
2018-07-14T00:45:01.584Z,77.8
2018-07-14T00:46:00.696Z,77.6
2018-07-14T00:47:00.080Z,77.9
2018-07-14T00:47:59.512Z,78.1
2018-07-14T00:48:30.149Z,78.1
2018-07-14T00:49:00.783Z,78.1
2018-07-14T00:49:58.090Z,78.3
2018-07-14T00:50:57.417Z,78.5
2018-07-14T00:51:56.738Z,78.3
2018-07-14T00:52:56.462Z,78.5
2018-07-14T00:53:55.678Z,78.3
2018-07-14T00:54:26.320Z,78.3
2018-07-14T00:54:56.836Z,78.9
2018-07-14T00:55:27.065Z,78.9
2018-07-14T00:55:57.302Z,78.5
2018-07-14T00:56:27.830Z,78.5
2018-07-14T00:56:58.463Z,78.6
2018-07-14T00:57:53.245Z,78.4
2018-07-14T00:58:52.564Z,78.3
2018-07-14T00:59:51.775Z,78.3
2018-07-14T01:00:50.987Z,78.3
2018-07-14T01:01:50.418Z,78.5
2018-07-14T01:02:49.627Z,78.7
2018-07-14T01:03:49.058Z,78.7
2018-07-14T01:04:48.176Z,78.7
2018-07-14T01:05:18.314Z,78.7
2018-07-14T01:05:48.838Z,78.6
2018-07-14T01:06:19.467Z,78.6
2018-07-14T01:06:50.001Z,78.5
2018-07-14T01:07:20.623Z,78.5
2018-07-14T01:08:45.723Z,79
2018-07-14T01:09:15.951Z,79
2018-07-14T01:09:46.074Z,79.1
2018-07-14T01:10:44.504Z,78.9
2018-07-14T01:11:43.867Z,79.2
2018-07-14T01:12:42.971Z,79.2
2018-07-14T01:13:42.393Z,79.1
2018-07-14T01:14:41.721Z,79.1
2018-07-14T01:15:41.046Z,79.2
2018-07-14T01:16:40.168Z,79.1
2018-07-14T01:17:39.546Z,79
2018-07-14T01:18:39.230Z,79
2018-07-14T01:19:38.333Z,79
2018-07-14T01:20:37.952Z,79.2
2018-07-14T01:21:37.167Z,79
2018-07-14T01:22:36.266Z,79
2018-07-14T01:23:35.589Z,79
2018-07-14T01:24:35.309Z,79.5
2018-07-14T01:25:34.638Z,79.1
2018-07-14T01:26:33.954Z,79.1
2018-07-14T01:27:33.172Z,79.1
2018-07-14T01:28:32.391Z,79.1
2018-07-14T01:29:31.716Z,79.1
2018-07-14T01:30:31.148Z,79.1
2018-07-14T01:31:30.582Z,79.1
2018-07-14T01:32:29.899Z,79.2
2018-07-14T01:33:29.339Z,79.3
2018-07-14T01:34:28.161Z,79.3
2018-07-14T01:35:27.987Z,79.4
2018-07-14T01:36:27.414Z,79.4
2018-07-14T01:37:26.617Z,79.3
2018-07-14T01:38:25.934Z,79.3
2018-07-14T01:39:25.250Z,79.1
2018-07-14T01:40:24.576Z,79.2
2018-07-14T01:41:24.005Z,79.4
2018-07-14T01:42:23.213Z,79.4
2018-07-14T01:43:22.534Z,79.5
2018-07-14T01:44:21.847Z,79.5
2018-07-14T01:45:20.957Z,79.6
2018-07-14T01:46:20.566Z,79.7
2018-07-14T01:47:19.676Z,79.6
2018-07-14T01:48:19.398Z,79.6
2018-07-14T01:48:49.630Z,79.6
2018-07-14T01:49:20.283Z,79.9
2018-07-14T01:50:17.590Z,79.8
2018-07-14T01:51:16.913Z,79.8
2018-07-14T01:52:16.634Z,79.9
2018-07-14T01:53:15.944Z,79.9
2018-07-14T01:54:15.052Z,80.2
2018-07-14T01:55:14.279Z,80
2018-07-14T01:56:13.710Z,80
2018-07-14T01:57:12.920Z,80
2018-07-14T01:58:12.238Z,79.9
2018-07-14T01:59:11.744Z,80
2018-07-14T02:00:11.061Z,80.2
2018-07-14T02:01:10.271Z,80.2
2018-07-14T02:02:09.700Z,80.2
2018-07-14T02:03:08.914Z,80.2
2018-07-14T02:04:08.231Z,80
2018-07-14T02:05:07.953Z,80
2018-07-14T02:06:07.157Z,80.2
2018-07-14T02:07:06.581Z,80.6
2018-07-14T02:08:05.799Z,80.7
2018-07-14T02:09:05.072Z,80.7
2018-07-14T02:10:04.186Z,80.8
2018-07-14T02:11:03.804Z,80.7
2018-07-14T02:12:03.012Z,80.5
2018-07-14T02:13:02.244Z,80.8
2018-07-14T02:14:01.463Z,80.7
2018-07-14T02:15:01.073Z,80.9
2018-07-14T02:16:00.401Z,80.8
2018-07-14T02:16:59.726Z,81.4
2018-07-14T02:17:58.941Z,81.1
2018-07-14T02:18:58.558Z,81.2
2018-07-14T02:19:57.501Z,81.5
2018-07-14T02:20:57.110Z,81.3
2018-07-14T02:21:56.533Z,81.4
2018-07-14T02:22:55.752Z,81.4
2018-07-14T02:24:54.464Z,81.8
2018-07-14T02:25:53.684Z,81.8
2018-07-14T02:26:24.331Z,81.8
2018-07-14T02:27:52.119Z,81.8
2018-07-14T02:28:51.332Z,81.8
2018-07-14T02:29:50.710Z,82.1
2018-07-14T02:30:50.435Z,82
2018-07-14T02:31:49.380Z,81.9
2018-07-14T02:32:48.632Z,81.9
2018-07-14T02:33:47.955Z,82
2018-07-14T02:34:47.405Z,82.1
2018-07-14T02:35:46.724Z,82.4
2018-07-14T02:36:46.232Z,82.2
2018-07-14T02:37:45.451Z,82.3
2018-07-14T02:38:44.877Z,82.3
2018-07-14T02:39:44.203Z,82.4
2018-07-14T02:40:43.549Z,82.1
2018-07-14T02:41:42.565Z,82.1
2018-07-14T02:42:41.927Z,82.3
2018-07-14T02:43:41.372Z,82.4
2018-07-14T02:44:12.026Z,82.4
2018-07-14T02:44:42.662Z,82.6
2018-07-14T02:45:12.791Z,82.6
2018-07-14T02:45:43.545Z,82.6
2018-07-14T02:46:14.071Z,82.6
2018-07-14T02:47:38.582Z,82.6
2018-07-14T02:49:37.400Z,82.7
2018-07-14T02:50:36.382Z,82.7
2018-07-14T02:51:36.005Z,82.8
2018-07-14T02:52:35.336Z,83
2018-07-14T02:53:34.663Z,83
2018-07-14T02:54:34.024Z,82.9
2018-07-14T02:55:33.247Z,83.1
2018-07-14T02:56:32.260Z,83.3
2018-07-14T02:57:31.711Z,83.3
2018-07-14T02:58:30.934Z,83.1
2018-07-14T02:59:30.179Z,83.6
2018-07-14T03:00:29.613Z,83.4
2018-07-14T03:01:28.943Z,83.5
2018-07-14T03:02:28.263Z,83.4
2018-07-14T03:03:27.489Z,83.6
2018-07-14T03:04:26.927Z,83.6
2018-07-14T03:05:26.369Z,83.6
2018-07-14T03:06:25.598Z,83.7
2018-07-14T03:07:24.935Z,83.5
2018-07-14T03:08:24.157Z,83.4
2018-07-14T03:09:23.521Z,83.5
2018-07-14T03:10:22.873Z,83.6
2018-07-14T03:11:22.202Z,83.6
2018-07-14T03:12:21.644Z,83.8
2018-07-14T03:13:20.975Z,83.9
2018-07-14T03:14:20.306Z,84
2018-07-14T03:15:19.638Z,84.2
2018-07-14T03:16:18.585Z,84.2
2018-07-14T03:17:17.823Z,84.3
2018-07-14T03:18:17.258Z,84.4
2018-07-14T03:19:16.564Z,84.3
2018-07-14T03:20:15.948Z,84.5
2018-07-14T03:21:15.177Z,84.4
2018-07-14T03:22:14.501Z,84.5
2018-07-14T03:23:13.747Z,84.5
2018-07-14T03:24:13.072Z,84.6
2018-07-14T03:25:12.206Z,84.6
2018-07-14T03:26:11.932Z,84.7
2018-07-14T03:27:11.047Z,84.8
2018-07-14T03:27:41.745Z,84.8
2018-07-14T03:28:11.884Z,84.7
2018-07-14T03:28:42.569Z,84.7
2018-07-14T03:29:13.208Z,84.8
2018-07-14T03:30:08.807Z,84.9
2018-07-14T03:31:08.579Z,85
2018-07-14T03:32:07.602Z,84.9
2018-07-14T03:33:07.012Z,85
2018-07-14T03:34:06.359Z,85.1
2018-07-14T03:35:05.724Z,85
2018-07-14T03:36:04.667Z,85.1
2018-07-14T03:37:04.013Z,85.1
2018-07-14T03:38:03.337Z,85.3
2018-07-14T03:39:02.559Z,85.6
2018-07-14T03:40:01.901Z,85.5
2018-07-14T03:41:01.521Z,85.5
2018-07-14T03:42:00.799Z,85.7
2018-07-14T03:43:00.069Z,85.5
2018-07-14T03:43:59.286Z,85.6
2018-07-14T03:44:58.611Z,85.6
2018-07-14T03:45:57.824Z,85.6
2018-07-14T03:46:57.041Z,85.8
2018-07-14T03:47:56.763Z,85.8
2018-07-14T03:48:56.083Z,85.9
2018-07-14T03:49:55.402Z,86
2018-07-14T03:50:54.222Z,86
2018-07-14T03:51:53.555Z,86
2018-07-14T03:52:53.176Z,86
2018-07-14T03:53:52.396Z,86.1
2018-07-14T03:54:51.609Z,86.2
2018-07-14T03:55:50.938Z,86.1
2018-07-14T03:56:50.452Z,86.4
2018-07-14T03:58:48.909Z,86.3
2018-07-14T03:59:48.227Z,86.5
2018-07-14T04:00:47.558Z,86.5
2018-07-14T04:01:46.998Z,86.5
2018-07-14T04:02:45.816Z,86.5
2018-07-14T04:03:45.136Z,86.6
2018-07-14T04:04:15.708Z,86.6
2018-07-14T04:04:46.136Z,86.7
2018-07-14T04:05:16.666Z,86.7
2018-07-14T04:05:47.406Z,86.8
2018-07-14T04:06:43.218Z,86.7
2018-07-14T04:07:42.669Z,86.6
2018-07-14T04:08:41.897Z,86.8
2018-07-14T04:09:41.221Z,86.8
2018-07-14T04:10:40.116Z,86.8
2018-07-14T04:11:39.546Z,86.8
2018-07-14T04:12:38.867Z,86.7
2018-07-14T04:13:38.197Z,86.7
2018-07-14T04:14:37.665Z,86.7
2018-07-14T04:15:37.124Z,86.7
2018-07-14T04:16:36.141Z,86.6
2018-07-14T04:17:35.361Z,86.4
2018-07-14T04:18:34.678Z,86.4
2018-07-14T04:19:34.007Z,86.6
2018-07-14T04:20:33.440Z,86.3
2018-07-14T04:21:32.775Z,86.4
2018-07-14T04:22:32.097Z,86.4
2018-07-14T04:23:31.418Z,86.2
2018-07-14T04:24:30.635Z,86.2
2018-07-14T04:25:29.955Z,86.2
2018-07-14T04:26:29.389Z,86.1
2018-07-14T04:27:28.711Z,86.2
2018-07-14T04:28:27.535Z,86.1
2018-07-14T04:29:26.750Z,86.1
2018-07-14T04:30:26.188Z,86.1
2018-07-14T04:31:25.919Z,86.1
2018-07-14T04:32:24.635Z,86.2
2018-07-14T04:33:24.357Z,86
2018-07-14T04:34:23.793Z,86.2
2018-07-14T04:35:22.763Z,86.2
2018-07-14T04:36:22.190Z,86
2018-07-14T04:37:21.507Z,86
2018-07-14T04:38:20.631Z,86
2018-07-14T04:39:20.060Z,86.1
2018-07-14T04:40:19.386Z,86.1
2018-07-14T04:41:18.602Z,86.1
2018-07-14T04:42:17.846Z,86
2018-07-14T04:43:17.172Z,86.1
2018-07-14T04:44:16.607Z,86.1
2018-07-14T04:45:16.041Z,86.1
2018-07-14T04:46:15.273Z,85.9
2018-07-14T04:47:14.607Z,86.1
2018-07-14T04:49:13.106Z,85.8
2018-07-14T04:50:12.326Z,86.1
2018-07-14T04:51:11.543Z,86.1
2018-07-14T04:52:10.664Z,86.2
2018-07-14T04:53:10.082Z,86.1
2018-07-14T04:54:09.565Z,86.3
2018-07-14T04:55:08.887Z,86.5
2018-07-14T04:56:08.220Z,86.5
2018-07-14T04:57:07.439Z,86.4
2018-07-14T04:58:06.757Z,86.5
2018-07-14T04:58:37.396Z,86.5
2018-07-14T04:59:07.924Z,86.5
2018-07-14T05:00:05.364Z,86.7
2018-07-14T05:01:04.698Z,86.7
2018-07-14T05:02:03.815Z,86.7
2018-07-14T05:03:03.249Z,86.7
2018-07-14T05:04:02.571Z,86.7
2018-07-14T05:05:01.895Z,86.8
2018-07-14T05:06:01.121Z,86.8
2018-07-14T05:07:00.466Z,86.7
2018-07-14T05:07:59.804Z,86.6
2018-07-14T05:08:59.189Z,86.6
2018-07-14T05:09:58.006Z,86.6
2018-07-14T05:10:57.444Z,86.5
2018-07-14T05:11:56.768Z,86.5
2018-07-14T05:12:56.197Z,86.4
2018-07-14T05:13:55.419Z,86.5
2018-07-14T05:14:54.733Z,86.4
2018-07-14T05:15:53.945Z,86.6
2018-07-14T05:16:53.372Z,86.5
2018-07-14T05:17:52.348Z,86.5
2018-07-14T05:18:51.563Z,86.3
2018-07-14T05:19:50.934Z,86.2
2018-07-14T05:20:50.271Z,86.3
2018-07-14T05:21:49.387Z,86.5
2018-07-14T05:22:49.117Z,86.3
2018-07-14T05:23:48.337Z,86.3
2018-07-14T05:24:47.766Z,86.4
2018-07-14T05:25:46.987Z,86.3
2018-07-14T05:26:46.213Z,86.1
2018-07-14T05:27:45.567Z,86.1
2018-07-14T05:28:44.911Z,86.1
2018-07-14T05:29:44.028Z,86
2018-07-14T05:30:43.454Z,86.2
2018-07-14T05:31:42.892Z,86.2
2018-07-14T05:32:42.109Z,86
2018-07-14T05:33:40.937Z,85.9
2018-07-14T05:34:40.444Z,85.9
2018-07-14T05:35:39.671Z,85.8
2018-07-14T05:36:38.888Z,85.6
2018-07-14T05:37:38.318Z,85.6
2018-07-14T05:38:37.532Z,85.7
2018-07-14T05:39:36.974Z,85.6
2018-07-14T05:40:36.293Z,85.7
2018-07-14T05:41:35.619Z,85.8
2018-07-14T05:42:34.938Z,85.4
2018-07-14T05:43:34.261Z,85.2
2018-07-14T05:44:33.475Z,85.1
2018-07-14T05:45:32.804Z,84.9
2018-07-14T05:46:32.236Z,84.9
2018-07-14T05:47:31.463Z,85.2
2018-07-14T05:48:30.896Z,85
2018-07-14T05:49:29.996Z,85
2018-07-14T05:50:29.325Z,85
2018-07-14T05:51:28.644Z,85.1
2018-07-14T05:52:28.070Z,85
2018-07-14T05:53:27.186Z,85.1
2018-07-14T05:53:57.818Z,85.1
2018-07-14T05:54:28.452Z,85
2018-07-14T05:55:25.770Z,85.2
2018-07-14T05:56:25.218Z,85
2018-07-14T05:57:24.537Z,84.9
2018-07-14T05:58:23.652Z,85.1
2018-07-14T05:59:22.981Z,84.5
2018-07-14T06:00:22.414Z,84.3
2018-07-14T06:01:21.523Z,84.2
2018-07-14T06:02:20.843Z,84.3
2018-07-14T06:04:19.562Z,83.8
2018-07-14T06:05:18.783Z,83.7
2018-07-14T06:06:18.012Z,83.8
2018-07-14T06:07:17.342Z,83.6
2018-07-14T06:08:16.608Z,84.1
2018-07-14T06:09:15.932Z,83.7
2018-07-14T06:10:15.260Z,84.1
2018-07-14T06:11:14.370Z,84.1
2018-07-14T06:12:13.588Z,84
2018-07-14T06:13:12.905Z,84.2
2018-07-14T06:14:12.309Z,84.2
2018-07-14T06:15:11.772Z,84
2018-07-14T06:16:10.995Z,83.8
2018-07-14T06:17:10.462Z,83.9
2018-07-14T06:18:09.252Z,83.8
2018-07-14T06:19:08.650Z,83.9
2018-07-14T06:20:08.135Z,83.9
2018-07-14T06:21:07.485Z,83.5
2018-07-14T06:22:06.872Z,83.4
2018-07-14T06:23:06.204Z,83.7
2018-07-14T06:24:05.553Z,83.8
2018-07-14T06:25:04.765Z,83.7
2018-07-14T06:26:04.087Z,83.7
2018-07-14T06:27:03.413Z,83.7
2018-07-14T06:28:02.243Z,84
2018-07-14T06:29:01.673Z,83.9
2018-07-14T06:30:01.210Z,84
2018-07-14T06:31:00.647Z,84.1
2018-07-14T06:32:58.854Z,83.5
2018-07-14T06:33:58.285Z,83.6
2018-07-14T06:34:57.727Z,83.6
2018-07-14T06:35:27.859Z,83.6
2018-07-14T06:35:58.523Z,83.4
2018-07-14T06:36:29.267Z,83.4
2018-07-14T06:36:59.796Z,83.6
2018-07-14T06:37:30.430Z,83.6
2018-07-14T06:38:54.917Z,83.2
2018-07-14T06:39:54.193Z,83.4
2018-07-14T06:40:53.622Z,83.1
2018-07-14T06:41:52.941Z,82.8
2018-07-14T06:42:52.167Z,82.8
2018-07-14T06:43:51.454Z,82.9
2018-07-14T06:44:50.944Z,82.8
2018-07-14T06:45:49.747Z,83
2018-07-14T06:46:49.064Z,82.7
2018-07-14T06:47:48.507Z,82.8
2018-07-14T06:48:48.120Z,82.5
2018-07-14T06:49:47.042Z,82.4
2018-07-14T06:50:46.471Z,82.6
2018-07-14T06:51:45.897Z,82.2
2018-07-14T06:52:45.225Z,82.2
2018-07-14T06:53:44.665Z,82
2018-07-14T06:54:43.989Z,82
2018-07-14T06:55:42.812Z,82.1
2018-07-14T06:56:42.139Z,81.7
2018-07-14T06:57:41.458Z,81.5
2018-07-14T06:58:40.787Z,82.1
2018-07-14T06:59:40.404Z,82.1
2018-07-14T07:00:39.736Z,81.4
2018-07-14T07:01:38.949Z,81.8
2018-07-14T07:02:38.379Z,80.5
2018-07-14T07:03:37.302Z,80.6
2018-07-14T07:04:36.627Z,80.4
2018-07-14T07:05:36.246Z,80.1
2018-07-14T07:06:35.683Z,80.1
2018-07-14T07:08:33.885Z,79.9
2018-07-14T07:09:33.107Z,79.8
2018-07-14T07:10:32.548Z,79.9
2018-07-14T07:11:31.982Z,79.4
2018-07-14T07:12:31.305Z,79.9
2018-07-14T07:13:30.628Z,79.6
2018-07-14T07:14:29.955Z,80.1
2018-07-14T07:15:29.173Z,79.2
2018-07-14T07:16:28.600Z,79.4
2018-07-14T07:17:27.813Z,79.8
2018-07-14T07:17:58.446Z,79.8
2018-07-14T07:18:28.580Z,79.7
2018-07-14T07:19:26.511Z,79.9
2018-07-14T07:20:26.022Z,78.8
2018-07-14T07:21:25.405Z,79.2
2018-07-14T07:22:24.569Z,79.1
2018-07-14T07:23:23.795Z,79
2018-07-14T07:24:23.123Z,78.6
2018-07-14T07:25:22.240Z,78.2
2018-07-14T07:26:21.667Z,78.3
2018-07-14T07:27:20.900Z,78.4
2018-07-14T07:28:20.114Z,77.8
2018-07-14T07:29:19.832Z,77.7
2018-07-14T07:30:18.943Z,77.6
2018-07-14T07:31:18.287Z,77.5
2018-07-14T07:32:17.400Z,77.3
2018-07-14T07:33:17.119Z,76.9
2018-07-14T07:34:15.945Z,77
2018-07-14T07:35:15.564Z,77.1
2018-07-14T07:36:14.817Z,76.6
2018-07-14T07:37:14.165Z,76.4
2018-07-14T07:38:13.603Z,76.3
2018-07-14T07:39:12.924Z,76.4
2018-07-14T07:40:12.246Z,76.1
2018-07-14T07:42:10.614Z,75.9
2018-07-14T07:43:10.226Z,75.7
2018-07-14T07:44:09.352Z,75.8
2018-07-14T07:45:08.574Z,75.6
2018-07-14T07:46:08.290Z,75.8
2018-07-14T07:47:07.109Z,75.8
2018-07-14T07:48:06.538Z,75.6
2018-07-14T07:49:06.154Z,75.8
2018-07-14T07:50:05.474Z,75.7
2018-07-14T07:51:04.688Z,75.8
2018-07-14T07:52:03.905Z,74.6
2018-07-14T07:53:03.628Z,74
2018-07-14T07:54:02.463Z,73.5
2018-07-14T07:55:02.183Z,73.3
2018-07-14T07:56:01.510Z,73.2
2018-07-14T07:57:00.729Z,73
2018-07-14T07:58:00.066Z,72.4
2018-07-14T07:58:59.257Z,72.6
2018-07-14T07:59:58.805Z,73.1
2018-07-14T08:00:58.233Z,73.2
2018-07-14T08:01:57.353Z,73.2
2018-07-14T08:02:56.681Z,73.5
2018-07-14T08:03:56.012Z,73.4
2018-07-14T08:04:55.338Z,73.3
2018-07-14T08:06:53.937Z,72.8
2018-07-14T08:07:53.173Z,71.4
2018-07-14T08:08:52.496Z,71.7
2018-07-14T08:10:51.220Z,72.1
2018-07-14T08:11:50.659Z,72.4
2018-07-14T08:12:49.988Z,71.8
2018-07-14T08:13:20.421Z,71.8
2018-07-14T08:13:51.002Z,72.1
2018-07-14T08:14:21.529Z,72.1
2018-07-14T08:14:51.957Z,72
2018-07-14T08:15:22.701Z,72
2018-07-14T08:16:47.479Z,72.1
2018-07-14T08:17:46.908Z,71.9
2018-07-14T08:18:46.125Z,71.9
2018-07-14T08:19:45.346Z,71.5
2018-07-14T08:20:44.677Z,71.6
2018-07-14T08:21:43.908Z,70.5
2018-07-14T08:22:43.610Z,70.5
2018-07-14T08:23:42.754Z,70.4
2018-07-14T08:24:42.179Z,69
2018-07-14T08:25:41.181Z,69.1
2018-07-14T08:26:11.709Z,69.1
2018-07-14T08:26:41.953Z,68.5
2018-07-14T08:27:40.387Z,68.7
2018-07-14T08:28:39.495Z,67.7
2018-07-14T08:29:38.819Z,67.6
2018-07-14T08:30:37.932Z,67.5
2018-07-14T08:31:37.254Z,67.1
2018-07-14T08:32:36.969Z,67.4
2018-07-14T08:33:36.290Z,67.6
2018-07-14T08:34:35.514Z,67.1
2018-07-14T08:35:34.945Z,66.8
2018-07-14T08:36:34.167Z,66.6
2018-07-14T08:37:33.502Z,66.6
2018-07-14T08:38:33.232Z,66.1
2018-07-14T08:39:32.454Z,66
2018-07-14T08:40:31.890Z,66.3
2018-07-14T08:41:31.006Z,66.4
2018-07-14T08:42:30.230Z,65.6
2018-07-14T08:43:29.664Z,64.7
2018-07-14T08:44:28.993Z,65.3
2018-07-14T08:45:28.217Z,65.3
2018-07-14T08:47:26.834Z,66.1
2018-07-14T08:48:26.771Z,66.8
2018-07-14T08:49:26.101Z,67.2
2018-07-14T08:50:25.375Z,67.2
2018-07-14T08:51:24.500Z,67.4
2018-07-14T08:52:23.638Z,67
2018-07-14T08:53:23.074Z,66.9
2018-07-14T08:54:22.807Z,66.2
2018-07-14T08:55:22.176Z,66.1
2018-07-14T08:56:21.613Z,65.8
2018-07-14T08:57:20.837Z,66
2018-07-14T08:57:51.367Z,66
2018-07-14T08:58:21.913Z,66.2
2018-07-14T08:59:19.132Z,65.9
2018-07-14T09:00:18.635Z,65.2
2018-07-14T09:01:18.249Z,65.5
2018-07-14T09:02:17.483Z,65.5
2018-07-14T09:03:16.802Z,65.3
2018-07-14T09:04:16.409Z,63.5
2018-07-14T09:05:15.654Z,62.8
2018-07-14T09:06:14.769Z,62.2
2018-07-14T09:07:14.601Z,62.4
2018-07-14T09:08:13.924Z,61.8
2018-07-14T09:09:13.261Z,62.2
2018-07-14T09:10:12.264Z,61.7
2018-07-14T09:11:11.600Z,61.5
2018-07-14T09:12:11.327Z,61.2
2018-07-14T09:13:10.673Z,62.2
2018-07-14T09:14:10.016Z,61.7
2018-07-14T09:15:09.231Z,61.8
2018-07-14T09:16:08.451Z,60.7
2018-07-14T09:17:08.070Z,61.1
2018-07-14T09:18:07.403Z,61.2
2018-07-14T09:19:06.617Z,59.7
2018-07-14T09:20:06.342Z,60.2
2018-07-14T09:21:05.778Z,60.4
2018-07-14T09:23:04.396Z,59.7
2018-07-14T09:24:03.618Z,59.5
2018-07-14T09:25:03.270Z,60.2
2018-07-14T09:26:02.194Z,60.3
2018-07-14T09:27:01.919Z,58.5
2018-07-14T09:28:01.159Z,58.7
2018-07-14T09:29:00.434Z,58.9
2018-07-14T09:29:59.769Z,57.9
2018-07-14T09:30:59.121Z,58.7
2018-07-14T09:31:58.558Z,57.8
2018-07-14T09:32:58.283Z,57.7
2018-07-14T09:33:57.618Z,57.8
2018-07-14T09:34:56.946Z,57.9
2018-07-14T09:35:56.264Z,57.6
2018-07-14T09:36:55.484Z,57.9
2018-07-14T09:37:55.192Z,58.5
2018-07-14T09:38:54.564Z,57.8
2018-07-14T09:39:53.687Z,57.8
2018-07-14T09:40:53.307Z,58.3
2018-07-14T09:41:52.647Z,57.9
2018-07-14T09:42:51.865Z,57.9
2018-07-14T09:43:51.254Z,58
2018-07-14T09:44:50.672Z,56.2
2018-07-14T09:45:50.186Z,56.6
2018-07-14T09:46:49.520Z,56.5
2018-07-14T09:47:48.966Z,56.9
2018-07-14T09:48:48.330Z,56.6
2018-07-14T09:49:47.774Z,56.8
2018-07-14T09:50:47.101Z,56.8
2018-07-14T09:51:46.435Z,56.9
2018-07-14T09:52:45.771Z,56.7
2018-07-14T09:53:16.411Z,56.7
2018-07-14T09:53:46.707Z,57.1
2018-07-14T09:54:17.231Z,57.1
2018-07-14T09:54:47.868Z,56.7
2018-07-14T09:55:18.791Z,56.7
2018-07-14T09:55:49.257Z,56.6
2018-07-14T09:56:43.444Z,55
2018-07-14T09:57:42.553Z,54.8
2018-07-14T09:58:42.385Z,54.5
2018-07-14T09:59:41.328Z,54.6
2018-07-14T10:00:41.054Z,53.9
2018-07-14T10:01:40.281Z,54.5
2018-07-14T10:02:39.730Z,53.5
2018-07-14T10:03:38.940Z,54
2018-07-14T10:04:09.176Z,54
2018-07-14T10:04:39.813Z,53.7
2018-07-14T10:05:10.134Z,53.7
2018-07-14T10:05:40.877Z,53
2018-07-14T10:06:11.352Z,53
2018-07-14T10:06:41.713Z,51.3
2018-07-14T10:07:36.910Z,51.8
2018-07-14T10:08:36.241Z,51.5
2018-07-14T10:09:35.679Z,52
2018-07-14T10:10:35.006Z,52.3
2018-07-14T10:11:34.443Z,52.5
2018-07-14T10:12:33.814Z,51.9
2018-07-14T10:13:33.242Z,52.3
2018-07-14T10:14:32.676Z,52.5
2018-07-14T10:15:32.107Z,50.9
2018-07-14T10:16:31.437Z,50.8
2018-07-14T10:17:30.903Z,49.9
2018-07-14T10:18:30.382Z,49
2018-07-14T10:20:29.201Z,48.8
2018-07-14T10:21:28.525Z,48.6
2018-07-14T10:22:27.645Z,47.3
2018-07-14T10:23:27.497Z,47.9
2018-07-14T10:24:26.932Z,46.9
2018-07-14T10:25:26.320Z,47.5
2018-07-14T10:26:25.654Z,48.1
2018-07-14T10:27:25.085Z,48.2
2018-07-14T10:28:24.421Z,48.3
2018-07-14T10:29:23.751Z,48.3
2018-07-14T10:30:23.076Z,48.4
2018-07-14T10:31:22.431Z,47.9
2018-07-14T10:32:22.153Z,47.8
2018-07-14T10:33:21.272Z,47.9
2018-07-14T10:34:21.106Z,47.3
2018-07-14T10:35:20.429Z,47
2018-07-14T10:36:19.648Z,46.3
2018-07-14T10:37:19.376Z,47
2018-07-14T10:39:18.096Z,46.9
2018-07-14T10:40:17.713Z,46.3
2018-07-14T10:41:17.150Z,46.4
2018-07-14T10:42:16.682Z,46.5
2018-07-14T10:43:15.676Z,46.6
2018-07-14T10:44:15.104Z,46.8
2018-07-14T10:45:14.432Z,47.1
2018-07-14T10:46:14.152Z,47.4
2018-07-14T10:47:13.480Z,47.6
2018-07-14T10:47:44.111Z,47.6
2018-07-14T10:48:14.649Z,47.3
2018-07-14T10:48:45.297Z,47.3
2018-07-14T10:49:16.050Z,47.2
2018-07-14T10:49:46.690Z,47.2
2018-07-14T10:51:11.073Z,45.9
2018-07-14T10:52:10.794Z,44.9
2018-07-14T10:53:10.021Z,45.1
2018-07-14T10:55:09.105Z,45.8
2018-07-14T10:56:08.260Z,45.1
2018-07-14T10:57:07.869Z,44.9
2018-07-14T10:58:07.629Z,45
2018-07-14T10:59:07.029Z,45.5
2018-07-14T11:00:06.456Z,46.1
2018-07-14T11:01:05.791Z,47.1
2018-07-14T11:02:05.010Z,47.4
2018-07-14T11:03:04.628Z,47.8
2018-07-14T11:04:03.849Z,47.4
2018-07-14T11:05:03.288Z,47.8
2018-07-14T11:06:03.116Z,47.9
2018-07-14T11:06:33.761Z,47.9
2018-07-14T11:07:03.996Z,46.4
2018-07-14T11:07:34.637Z,46.4
2018-07-14T11:09:01.444Z,45.5
2018-07-14T11:10:00.661Z,41.8
2018-07-14T11:11:00.280Z,41.9
2018-07-14T11:11:59.556Z,43.7
2018-07-14T11:12:59.014Z,44.1
2018-07-14T11:13:58.866Z,44.8
2018-07-14T11:14:58.293Z,43.8
2018-07-14T11:15:57.617Z,43.8
2018-07-14T11:16:56.839Z,43.7
2018-07-14T11:17:56.556Z,43.3
2018-07-14T11:18:55.994Z,42.5
2018-07-14T11:19:55.372Z,42.6
2018-07-14T11:20:54.693Z,43.5
2018-07-14T11:21:54.523Z,43.9
2018-07-14T11:22:53.847Z,43.2
2018-07-14T11:23:53.188Z,42.6
2018-07-14T11:24:52.533Z,42.4
2018-07-14T11:25:51.969Z,42
2018-07-14T11:26:51.583Z,42
2018-07-14T11:27:50.916Z,41.7
2018-07-14T11:28:50.743Z,41.3
2018-07-14T11:29:50.074Z,41.4
2018-07-14T11:30:49.574Z,41.9
2018-07-14T11:31:49.185Z,41.2
2018-07-14T11:32:48.398Z,40.7
2018-07-14T11:33:48.116Z,40.7
2018-07-14T11:34:47.224Z,40.1
2018-07-14T11:35:47.052Z,40.3
2018-07-14T11:36:46.373Z,40.8
2018-07-14T11:37:46.413Z,40.6
2018-07-14T11:38:45.643Z,40.2
2018-07-14T11:39:44.995Z,40.4
2018-07-14T11:40:44.322Z,40.6
2018-07-14T11:41:43.757Z,40.2
2018-07-14T11:42:43.595Z,39.2
2018-07-14T11:43:42.706Z,38.1
2018-07-14T11:44:42.427Z,37.1
2018-07-14T11:45:12.713Z,37.1
2018-07-14T11:45:42.855Z,38
2018-07-14T11:46:13.282Z,38
2018-07-14T11:46:44.041Z,38.2
2018-07-14T11:47:40.972Z,38.9
2018-07-14T11:48:40.364Z,38.9
2018-07-14T11:49:40.090Z,39.3
2018-07-14T11:50:39.417Z,40.6
2018-07-14T11:51:38.847Z,41.3
2018-07-14T11:52:38.180Z,41.7
2018-07-14T11:53:38.113Z,40.6
2018-07-14T11:54:37.453Z,40.6
2018-07-14T11:55:37.175Z,40.2
2018-07-14T11:56:36.403Z,40.2
2018-07-14T11:57:35.847Z,40.6
2018-07-14T11:58:35.277Z,40.4
2018-07-14T11:59:35.107Z,40
2018-07-14T12:00:34.440Z,39.4
2018-07-14T12:01:34.167Z,38.1
2018-07-14T12:02:33.507Z,38.8
2018-07-14T12:03:32.828Z,38.7
2018-07-14T12:04:32.657Z,39.1
2018-07-14T12:05:31.982Z,38.8
2018-07-14T12:06:02.624Z,38.8
2018-07-14T12:07:31.145Z,38.7
2018-07-14T12:08:30.477Z,41.3
2018-07-14T12:09:30.407Z,40
2018-07-14T12:11:29.122Z,38.3
2018-07-14T12:12:28.959Z,37.9
2018-07-14T12:13:28.155Z,38.9
2018-07-14T12:14:27.668Z,38.2
2018-07-14T12:15:27.180Z,38.7
2018-07-14T12:16:27.009Z,39.1
2018-07-14T12:18:25.720Z,38.7
2018-07-14T12:19:25.222Z,39.6
2018-07-14T12:20:25.053Z,39.7
2018-07-14T12:21:24.277Z,39
2018-07-14T12:22:24.329Z,39.7
2018-07-14T12:23:23.418Z,39.2
2018-07-14T12:24:23.249Z,41
2018-07-14T12:25:22.869Z,40
2018-07-14T12:26:22.189Z,39.4
2018-07-14T12:27:21.661Z,39.3
2018-07-14T12:28:21.510Z,40.1
2018-07-14T12:29:20.834Z,42
2018-07-14T12:30:20.644Z,39.6
2018-07-14T12:31:19.831Z,39.3
2018-07-14T12:32:19.657Z,39.2
2018-07-14T12:33:18.982Z,38.9
2018-07-14T12:34:18.707Z,38.9
2018-07-14T12:35:18.139Z,38.5
2018-07-14T12:36:17.661Z,38.7
2018-07-14T12:37:17.489Z,38.8
2018-07-14T12:38:16.820Z,38.6
2018-07-14T12:39:16.147Z,38.5
2018-07-14T12:40:15.871Z,38.7
2018-07-14T12:41:15.813Z,38.5
2018-07-14T12:42:14.925Z,39.3
2018-07-14T12:43:14.759Z,37.8
2018-07-14T12:44:14.264Z,37.3
2018-07-14T12:45:13.979Z,37.9
2018-07-14T12:46:13.598Z,36.7
2018-07-14T12:47:12.921Z,36.7
2018-07-14T12:48:12.745Z,38.5
2018-07-14T12:48:43.387Z,38.5
2018-07-14T12:49:13.920Z,38.4
2018-07-14T12:49:44.452Z,38.4
2018-07-14T12:51:11.246Z,38.1
2018-07-14T12:52:10.966Z,38.4
2018-07-14T12:53:10.394Z,37.7
2018-07-14T12:54:10.117Z,37.9
2018-07-14T12:55:09.444Z,38.3
2018-07-14T12:56:09.166Z,40.2
2018-07-14T12:57:08.497Z,37.9
2018-07-14T12:58:08.220Z,37.3